Air Resources Laboratory banner image
Air Resources Laboratory web site National Oceanic and Atmospheric Administration (NOAA)

mi metar


KACB 211755Z AUTO 01007KT 330V040 10SM OVC038 M06/M14 A3034 RMK AO2 T10561139
 11050 21066=
KADG 211753Z AUTO 01010KT 10SM OVC036 01/M06 A3025 RMK AO2 SLP253 T00061056
 10006 20000 51015 TSNO=
KAMN 211755Z AUTO 35010G15KT 10SM OVC036 M03/M11 A3030 RMK AO2 T10261112 11011
 21030=
KANJ 211755Z AUTO 32011KT 10SM CLR M12/M19 A3034 RMK AO2 SLP285 T11171194 11117
 21144 51019=
KAPN 211754Z AUTO 33013G21KT 10SM OVC033 M08/M15 A3031 RMK AO2 SLP277 60001
 T10831150 11078 21094 53011=
KARB 211753Z 33011KT 10SM BKN038 00/M06 A3023 RMK AO2 SLP246 T00001061 10011
 21006 51016=
KAZO 211753Z 35006KT 10SM OVC034 01/M07 A3027 RMK AO2 SLP259 T00111067 10017
 20000 53007=
KBAX 211755Z AUTO 31014G17KT 10SM SCT041 M04/M14 A3027 RMK AO2 T10451138 11017
 21051=
KBEH 211753Z AUTO VRB03G16KT 10SM OVC030 01/M06 A3029 RMK AO2 SLP265 T00111056
 10028 20011 53009=
KBIV 211753Z AUTO VRB05KT 10SM CLR 01/M10 A3030 RMK AO2 SLP269 T00061100 10017
 21011 51018=
KBTL 211753Z 02010G17KT 10SM BKN033 01/M07 A3025 RMK AO2 SLP255 T00061067 10017
 21006 51013=
KCAD 211755Z AUTO 35007KT 10SM BKN030 OVC036 M06/M14 A3025 RMK AO2 T10601143=
KCIU 211756Z AUTO 34012G17KT 4SM -SN OVC021 M12/M16 A3032 RMK AO2 SNB37 SLP298
 P0000 60000 T11171161 11111 21144 51015 FZRANO=
KCMX 211753Z AUTO 36006KT 10SM OVC028 M11/M18 A3038 RMK AO2 SNB1655E32 SLP310
 P0000 60001 T11061183 11106 21111 51014=
KDET 211753Z 34008KT 10SM FEW036 BKN048 01/M08 A3024 RMK AO2 SLP247 T00061078
 10017 21006 51017=
KDTW 211753Z 34012G19KT 10SM FEW030 BKN040 BKN230 01/M07 A3024 RMK AO2 SLP245
 T00111072 10028 20006 51017=
KERY 211755Z AUTO 34010G14KT 7SM SCT026 BKN031 OVC039 M10/M15 A3033 RMK AO2
 T11051152 11102 21117=
KESC 211756Z AUTO 35008KT 310V020 10SM OVC039 M06/M13 A3037 RMK AO2 SLP311
 T10561133 11056 21111 51010 FZRANO=
KFNT 211753Z 03012KT 10SM FEW032 OVC042 M02/M08 A3027 RMK AO2 SLP262 60000
 T10221083 10000 21028 51020=
KGLR 211753Z AUTO VRB05KT 10SM OVC032 M09/M16 A3026 RMK AO2 SLP272 60000
 T10941156 11094 21106 51018=
KGRR 211753Z 33010KT 10SM FEW035 FEW150 FEW220 00/M11 A3028 RMK AO2 SLP261
 T00001106 10006 21011 51015=
KHTL 211753Z AUTO 33012KT 10SM OVC036 M07/M14 A3028 RMK AO2 SLP272 60000
 T10721139 11056 21078 51018=
KIMT 211754Z AUTO 33006KT 10SM OVC031 M09/M16 A3034 RMK AO2 SLP298 60000
 T10891156 11089 21122 53005=
KIRS 211755Z AUTO 31009KT 10SM OVC033 02/M07 A3024 RMK AO2 T00181074 10021
 20000=
KISQ 211755Z AUTO 36009G18KT 10SM SCT023 SCT030 OVC048 M08/M16 A3034 RMK AO2
 T10801158 11075 21112=
KIWD 211756Z AUTO 10006KT 9SM -SN OVC025 M09/M14 A3038 RMK AO2 SLP314 6////
 T10941139 11078 21111 53012 FZRANO PNO $=
KJXN 211756Z 34011G15KT 10SM OVC034 M01/M07 A3024 RMK AO2 SLP252 T10061072
 10011 21006 51015=
KJYM 211755Z AUTO 35007KT 10SM OVC027 00/M06 A3022 RMK AO2=
KLAN 211753Z 34010KT 10SM CLR M01/M11 A3028 RMK AO2 SLP263 T10111106 10000
 21022 51019=
KLDM 211755Z AUTO 36008KT 330V050 10SM OVC035 M02/M10 A3032 RMK AO2 T10231102
 11021 21035=
KMBL 211756Z AUTO 35008KT 9SM -SN OVC036 M04/M11 A3033 RMK AO2 SLP294 P0000
 60000 T10391106 11033 21044 51016 FZRANO=
KMBS 211753Z 34016KT 10SM OVC040 M03/M12 A3030 RMK AO2 SLP269 T10331117 11011
 21039 51021=
KMCD 211755Z AUTO 02003KT 7SM SCT019 BKN034 OVC039 M10/M16 A3033 RMK AO2
 T10961164 11092 21113=
KMKG 211755Z 34012G17KT 10SM BKN040 00/M11 A3031 RMK AO2 SLP271 T00001106 10000
 21017 50009=
KMNM 211756Z AUTO 34009KT 10SM CLR M05/M14 A3039 RMK AO2 SLP313 T10501144 11033
 21089 51013 FZRANO $=
KMOP 211755Z AUTO 36005KT 10SM OVC038 M03/M12 A3028 RMK AO2 T10291124 11010
 21037=
KMTC 211756Z 34011KT 10SM FEW027 BKN036 BKN048 M01/M07 A3023 RMK AO2A SNE43
 SLP247 P0000 60000 T10101072 10015 21016 51020 $=
KOEB 211755Z AUTO 35006KT 10SM BKN030 01/M08 A3025 RMK AO2 T00081083 10022
 20000=
KONZ 211755Z AUTO 30008KT 10SM BKN046 02/M07 A3022 RMK AO2 T00221073 10024
 20005=
KOSC 211755Z AUTO 32012KT 10SM SCT033 BKN039 BKN044 M07/M15 A3029 RMK AO2
 T10681146 11046 21073=
KOZW 211755Z AUTO 33012G16KT 10SM SCT038 00/M11 A3024 RMK AO2 T10031106 10005
 21017=
KP58 211751Z AUTO 32015G23KT M05/M12 A3026 RMK AO1 SLP259 T10501117 11017 21050
 51021=
KP59 211751Z AUTO 05011G19KT M08/M13 A3040 RMK AO1 SLP316 T10831128 11083 21094
 51015=
KPHN 211755Z AUTO 35007G14KT 10SM OVC039 M02/M10 A3025 RMK AO2=
KPLN 211754Z AUTO 34013G20KT 10SM OVC037 M09/M15 A3034 RMK AO2 SLP287 T10891150
 11089 21100 51019=
KPTK 211753Z 33013KT 10SM BKN040 BKN240 M01/M11 A3021 RMK AO2 SLP242 60000
 T10111106 10000 21022 51017=
KRMY 211755Z AUTO 03005KT 10SM BKN034 02/M08 A3024 RMK AO2 T00181077 10027
 20007=
KRQB 211755Z AUTO 01009KT 10SM OVC036 M03/M11 A3027 RMK AO2 T10341107 11026
 21045=
KSAW 211747Z 34014G18KT 10SM SCT018 BKN034 M09/M15 A3032=
KTEW 211755Z AUTO 34011KT 10SM BKN037 00/M10 A3026 RMK AO2 T00001096 10015
 21006=
KTTF 211755Z AUTO 31008KT 10SM OVC043 01/M05 A3023 RMK AO2 T00141054 10014
 20002=
KTVC 211753Z 34011KT 10SM SCT035 OVC043 M05/M11 A3032 RMK AO2 SNE02 SLP276
 4/001 P0000 60001 T10501111 11039 21050 51017=
KYIP 211753Z 34011KT 10SM OVC041 02/M06 A3024 RMK AO2 SLP243 T00171061 10022
 20011 51016=